Time;durP1;ratioP1;P1;durP2;ratioP2;P2;SDS_P1;SDS_P2;PMS_P1;PMS_P2;Temp;Humidity;BMP_temperature;BMP_pressure;BME280_temperature;BME280_humidity;BME280_pressure;Samples;Min_cycle;Max_cycle;Signal;HPM_P1;HPM_P2
2023/09/17 00:00:36;;;;;;;;;9.50;9.50;;;;;22.11;66.83;100468.69;5061655;28;45501;-83
2023/09/17 00:03:03;;;;;;;;;10.00;10.00;;;;;22.07;66.98;100460.06;5062956;28;45240;-83
2023/09/17 00:05:28;;;;;;;;;11.33;11.33;;;;;21.87;67.42;100442.34;5062599;28;46448;-84
2023/09/17 00:07:53;;;;;;;;;14.33;11.00;;;;;21.97;67.13;100456.59;5060682;28;45235;-89
2023/09/17 00:10:19;;;;;;;;;9.33;9.33;;;;;21.66;67.25;100406.72;5062612;28;45182;-84
2023/09/17 00:12:44;;;;;;;;;11.67;9.67;;;;;21.75;67.63;100436.38;5064850;28;45338;-83
2023/09/17 00:15:10;;;;;;;;;11.00;10.00;;;;;21.74;67.34;100431.94;5062186;28;45299;-84
2023/09/17 00:17:35;;;;;;;;;12.00;12.00;;;;;22.01;67.24;100459.84;5061411;28;45480;-84
2023/09/17 00:20:01;;;;;;;;;11.67;11.33;;;;;21.99;68.05;100451.00;5061489;28;45314;-82
2023/09/17 00:22:26;;;;;;;;;14.00;11.00;;;;;21.98;68.03;100457.44;5061517;28;45664;-83
2023/09/17 00:24:51;;;;;;;;;14.00;11.67;;;;;21.77;67.73;100426.25;5062848;28;46504;-84
2023/09/17 00:27:17;;;;;;;;;14.00;11.00;;;;;21.92;68.15;100463.53;5061497;28;45447;-85
2023/09/17 00:29:42;;;;;;;;;13.67;12.33;;;;;21.79;68.46;100451.28;5059768;28;45351;-84
2023/09/17 00:32:07;;;;;;;;;11.00;11.00;;;;;21.64;68.27;100425.84;5061497;28;45306;-87
2023/09/17 00:34:33;;;;;;;;;10.33;9.00;;;;;21.64;68.31;100431.25;5061121;28;46697;-85
2023/09/17 00:37:00;;;;;;;;;5.67;5.67;;;;;21.65;68.52;100435.66;5060512;28;45366;-84
2023/09/17 00:39:26;;;;;;;;;7.67;7.00;;;;;21.77;68.89;100464.13;5058937;28;45288;-92
2023/09/17 00:41:52;;;;;;;;;11.67;11.67;;;;;21.72;68.87;100450.22;5060230;28;45253;-85
2023/09/17 00:44:17;;;;;;;;;10.67;10.67;;;;;21.53;68.94;100420.69;5061200;28;45317;-92
2023/09/17 00:46:42;;;;;;;;;11.33;8.00;;;;;21.72;68.84;100455.63;5065758;28;45269;-85
2023/09/17 00:49:13;;;;;;;;;13.00;12.33;;;;;21.70;68.96;100454.94;5069938;28;45183;-88
2023/09/17 00:51:39;;;;;;;;;9.00;9.00;;;;;21.69;69.24;100457.81;5062285;28;45408;-89
2023/09/17 00:54:07;;;;;;;;;9.33;9.33;;;;;21.36;69.50;100399.97;5063507;28;46117;-87
2023/09/17 00:56:33;;;;;;;;;10.33;10.33;;;;;21.53;69.49;100433.38;5059509;28;45354;-84
2023/09/17 00:58:59;;;;;;;;;13.00;11.33;;;;;21.53;69.36;100436.94;5060084;28;45291;-88
2023/09/17 01:01:25;;;;;;;;;9.67;8.33;;;;;21.45;69.50;100431.47;5060095;28;45561;-86
2023/09/17 01:03:50;;;;;;;;;11.67;9.33;;;;;21.62;69.83;100454.06;5071180;28;48121;-85
2023/09/17 01:06:16;;;;;;;;;13.00;9.33;;;;;21.34;69.35;100412.78;5060804;28;45413;-83
2023/09/17 01:08:41;;;;;;;;;9.67;8.00;;;;;21.59;69.32;100448.97;5060377;28;45428;-86
2023/09/17 01:11:09;;;;;;;;;9.00;8.67;;;;;21.51;69.84;100446.22;5059580;28;45430;-84
2023/09/17 01:13:39;;;;;;;;;9.00;9.00;;;;;21.44;70.37;100454.13;5059808;28;45255;-84
2023/09/17 01:16:05;;;;;;;;;9.67;9.33;;;;;21.27;69.98;100422.56;5054607;28;45362;-85
2023/09/17 01:18:32;;;;;;;;;9.67;9.67;;;;;21.31;70.29;100430.19;5045152;28;45470;-84
2023/09/17 01:21:37;;;;;;;;;9.67;9.67;;;;;21.32;70.86;100445.41;5059409;28;45385;-83
2023/09/17 01:24:25;;;;;;;;;10.00;8.33;;;;;21.36;70.65;100457.63;5032809;28;46773;-86
2023/09/17 01:27:18;;;;;;;;;8.33;8.00;;;;;21.35;70.97;100460.47;5057033;28;45362;-87
2023/09/17 01:29:46;;;;;;;;;11.00;9.33;;;;;21.28;70.98;100446.75;5056371;28;45627;-89
2023/09/17 01:32:12;;;;;;;;;7.67;7.67;;;;;21.30;71.11;100460.97;5074465;28;45476;-86
2023/09/17 01:34:40;;;;;;;;;7.33;7.33;;;;;21.16;71.21;100435.31;5058792;28;45993;-88
2023/09/17 01:37:16;;;;;;;;;8.33;8.33;;;;;21.01;71.27;100412.53;5062552;27;45403;-89
2023/09/17 01:39:47;;;;;;;;;10.33;10.33;;;;;21.16;71.13;100432.59;5063080;28;45472;-86
2023/09/17 01:42:15;;;;;;;;;7.00;7.00;;;;;21.16;71.49;100443.41;5059262;28;45635;-88
2023/09/17 01:44:43;;;;;;;;;9.67;7.67;;;;;21.23;71.43;100448.22;5068995;28;47598;-82
2023/09/17 01:47:09;;;;;;;;;9.00;9.00;;;;;20.87;71.82;100394.19;5071126;28;44728;-83
2023/09/17 01:49:36;;;;;;;;;7.67;7.67;;;;;21.19;71.30;100459.31;5070751;28;45303;-84
2023/09/17 01:52:02;;;;;;;;;10.33;10.33;;;;;21.17;71.64;100461.34;5064291;28;45176;-86
2023/09/17 01:54:28;;;;;;;;;9.33;8.00;;;;;20.84;72.06;100397.22;5058915;28;45491;-87
2023/09/17 01:56:53;;;;;;;;;9.33;7.67;;;;;20.86;71.87;100408.72;5057193;28;45271;-85
2023/09/17 01:59:19;;;;;;;;;9.00;9.00;;;;;20.99;71.65;100428.09;5061007;28;45232;-86
2023/09/17 02:01:44;;;;;;;;;8.00;8.00;;;;;20.88;71.81;100409.41;5062566;28;58969;-88
2023/09/17 02:04:09;;;;;;;;;9.00;8.33;;;;;21.15;71.95;100447.13;5060345;28;60735;-88
2023/09/17 02:06:36;;;;;;;;;9.67;8.00;;;;;21.14;71.57;100450.84;5059182;28;45485;-87
2023/09/17 02:09:05;;;;;;;;;11.33;7.67;;;;;21.08;72.16;100446.03;5062178;28;45404;-84
2023/09/17 02:11:30;;;;;;;;;8.33;8.33;;;;;20.88;71.94;100414.81;5059329;28;45243;-86
2023/09/17 02:13:56;;;;;;;;;8.67;7.67;;;;;20.72;71.81;100382.25;5058188;28;46560;-86
2023/09/17 02:16:21;;;;;;;;;9.67;9.67;;;;;20.93;72.27;100415.19;5061425;28;46897;-84
2023/09/17 02:18:47;;;;;;;;;8.67;8.67;;;;;21.12;72.16;100447.44;5067044;28;45433;-87
2023/09/17 02:21:12;;;;;;;;;8.00;8.00;;;;;21.02;72.09;100425.06;5068294;28;45173;-86
2023/09/17 02:23:38;;;;;;;;;8.00;8.00;;;;;21.02;72.00;100426.91;5072254;28;63430;-89
2023/09/17 02:26:03;;;;;;;;;9.33;9.33;;;;;21.12;72.01;100442.03;5072422;28;45239;-85
2023/09/17 02:28:29;;;;;;;;;9.33;9.33;;;;;21.11;72.25;100439.50;5064625;28;59319;-87
2023/09/17 02:30:54;;;;;;;;;11.67;10.00;;;;;20.90;71.94;100392.00;5063959;28;45231;-86
2023/09/17 02:33:19;;;;;;;;;7.00;7.00;;;;;21.03;71.87;100415.94;5059759;28;45596;-84
2023/09/17 02:35:45;;;;;;;;;8.33;7.00;;;;;20.78;71.89;100379.75;5060596;28;45429;-86
2023/09/17 02:38:10;;;;;;;;;10.00;8.00;;;;;21.14;71.92;100422.94;5057842;28;45232;-86
2023/09/17 02:40:35;;;;;;;;;10.00;8.33;;;;;21.05;71.75;100408.50;5058365;28;45346;-87
2023/09/17 02:43:01;;;;;;;;;7.67;7.67;;;;;21.13;71.77;100416.69;5056944;28;45347;-84
2023/09/17 02:45:27;;;;;;;;;9.00;9.00;;;;;21.20;72.03;100422.31;5058583;28;45432;-85
2023/09/17 02:47:53;;;;;;;;;7.00;7.00;;;;;21.06;71.61;100415.63;5057765;28;45351;-86
2023/09/17 02:50:19;;;;;;;;;9.33;8.00;;;;;21.22;71.42;100431.09;5058264;28;45263;-85
2023/09/17 02:52:45;;;;;;;;;8.33;8.33;;;;;21.20;71.52;100433.97;5060370;28;47155;-84
2023/09/17 02:55:10;;;;;;;;;8.67;7.67;;;;;21.17;71.35;100422.63;5058529;28;45367;-86
2023/09/17 02:57:36;;;;;;;;;8.00;8.00;;;;;21.19;71.29;100421.47;5057368;28;45402;-86
2023/09/17 03:00:04;;;;;;;;;8.67;8.67;;;;;21.25;71.40;100424.56;5056336;28;45334;-87
2023/09/17 03:02:30;;;;;;;;;7.67;7.67;;;;;21.25;71.60;100428.13;5068422;28;47057;-87
2023/09/17 03:04:58;;;;;;;;;7.00;7.00;;;;;21.24;71.59;100428.25;5037558;28;45283;-85
2023/09/17 03:07:24;;;;;;;;;7.33;7.00;;;;;21.23;72.02;100437.38;5036967;28;45655;-85
2023/09/17 03:09:50;;;;;;;;;11.33;7.67;;;;;21.21;71.77;100424.00;5050918;28;45315;-85
2023/09/17 03:12:15;;;;;;;;;12.33;10.00;;;;;21.18;72.14;100419.75;5058437;28;45318;-83
2023/09/17 03:14:41;;;;;;;;;9.33;8.00;;;;;21.04;71.99;100404.13;5059035;28;45340;-84
2023/09/17 03:17:06;;;;;;;;;6.00;6.00;;;;;21.08;71.89;100412.75;5059368;28;45303;-86
2023/09/17 03:19:31;;;;;;;;;4.33;4.33;;;;;21.12;72.11;100424.97;5056947;27;45338;-85
2023/09/17 03:21:57;;;;;;;;;8.33;7.67;;;;;21.04;72.05;100398.72;5055944;28;58697;-84
2023/09/17 03:24:22;;;;;;;;;7.67;7.00;;;;;21.05;72.33;100411.22;5056849;28;45346;-84
2023/09/17 03:26:47;;;;;;;;;10.00;10.00;;;;;20.82;72.82;100380.28;5056868;28;45340;-85
2023/09/17 03:29:13;;;;;;;;;8.67;8.67;;;;;20.85;72.31;100380.84;5059381;28;49433;-89
2023/09/17 03:31:38;;;;;;;;;8.00;7.33;;;;;21.13;72.15;100422.09;5061488;28;46775;-88
2023/09/17 03:34:04;;;;;;;;;8.00;7.00;;;;;21.13;72.09;100416.69;5061113;28;45302;-84
2023/09/17 03:36:29;;;;;;;;;7.33;5.67;;;;;20.94;71.99;100395.25;5060299;28;45507;-83
2023/09/17 03:38:54;;;;;;;;;9.00;9.00;;;;;21.05;72.28;100411.22;5059611;28;51467;-84
2023/09/17 03:41:20;;;;;;;;;8.00;8.00;;;;;20.99;72.06;100392.09;5060118;28;46158;-83
2023/09/17 03:43:45;;;;;;;;;8.67;7.33;;;;;21.09;72.46;100409.88;5059938;28;45437;-85
2023/09/17 03:46:11;;;;;;;;;8.00;8.00;;;;;21.10;72.32;100410.75;5060068;28;49188;-84
2023/09/17 03:48:36;;;;;;;;;8.00;6.67;;;;;21.00;72.25;100389.22;5059886;28;45428;-83
2023/09/17 03:51:04;;;;;;;;;10.00;8.33;;;;;20.90;72.50;100386.59;5057845;28;46472;-83
2023/09/17 03:53:30;;;;;;;;;6.67;6.00;;;;;20.77;71.81;100350.19;5058336;28;45361;-83
2023/09/17 03:55:55;;;;;;;;;6.00;6.00;;;;;20.84;71.76;100364.78;5060153;28;45176;-86
2023/09/17 03:58:21;;;;;;;;;10.67;10.00;;;;;21.09;72.10;100412.59;5060368;28;45243;-87
2023/09/17 04:00:47;;;;;;;;;10.33;8.33;;;;;21.00;72.07;100397.34;5059159;28;46222;-86
2023/09/17 04:03:18;;;;;;;;;8.00;8.00;;;;;20.64;72.46;100338.94;5060003;28;45405;-84
2023/09/17 04:05:44;;;;;;;;;10.33;8.67;;;;;20.56;72.24;100337.84;5060119;28;45454;-86
2023/09/17 04:08:10;;;;;;;;;8.33;8.33;;;;;20.56;72.52;100354.06;5059303;28;45324;-85
2023/09/17 04:10:35;;;;;;;;;10.00;8.00;;;;;20.85;72.61;100398.91;5058801;28;45431;-84
2023/09/17 04:13:00;;;;;;;;;9.67;8.67;;;;;20.83;72.61;100399.06;5040128;28;45399;-87
2023/09/17 04:15:26;;;;;;;;;7.00;7.00;;;;;20.89;72.49;100419.22;5040136;28;45278;-87
2023/09/17 04:17:51;;;;;;;;;7.00;5.00;;;;;20.48;72.96;100350.47;5039736;28;45556;-84
2023/09/17 04:20:18;;;;;;;;;8.00;8.00;;;;;20.79;72.65;100407.63;5053972;28;45276;-83
2023/09/17 04:22:46;;;;;;;;;8.00;8.00;;;;;20.83;73.35;100419.81;5074749;28;45970;-84
2023/09/17 04:25:13;;;;;;;;;10.00;8.67;;;;;20.72;73.35;100402.00;5059234;28;45390;-83
2023/09/17 04:27:42;;;;;;;;;7.33;6.67;;;;;20.32;73.64;100340.34;5059017;28;45386;-84
2023/09/17 04:30:08;;;;;;;;;7.00;7.00;;;;;20.55;73.08;100384.78;5058805;28;46484;-85
2023/09/17 04:32:37;;;;;;;;;7.33;7.33;;;;;20.76;73.54;100413.34;5058627;28;45294;-84
2023/09/17 04:35:11;;;;;;;;;7.67;7.67;;;;;20.72;73.64;100411.97;5058829;28;45432;-85
2023/09/17 04:37:38;;;;;;;;;9.67;9.67;;;;;20.72;73.66;100409.28;5059736;28;45464;-85
2023/09/17 04:40:13;;;;;;;;;7.67;7.67;;;;;20.71;73.52;100415.69;5058598;28;45469;-84
2023/09/17 04:42:40;;;;;;;;;8.00;8.00;;;;;20.52;73.81;100385.09;5061208;28;45440;-83
2023/09/17 04:45:06;;;;;;;;;6.67;6.67;;;;;20.65;73.75;100406.34;5059910;28;45371;-84
2023/09/17 04:47:36;;;;;;;;;7.00;7.00;;;;;20.57;73.70;100393.63;5059847;28;45542;-86
2023/09/17 04:50:07;;;;;;;;;6.33;6.33;;;;;20.60;74.19;100398.69;5059436;28;46289;-85
2023/09/17 04:52:33;;;;;;;;;5.00;3.67;;;;;20.40;74.23;100370.09;5060827;28;45422;-84
2023/09/17 04:54:58;;;;;;;;;9.33;9.33;;;;;20.47;74.48;100390.13;5056964;28;45334;-84
2023/09/17 04:57:24;;;;;;;;;8.00;8.00;;;;;20.19;74.27;100350.69;5040752;28;45232;-85
2023/09/17 04:59:49;;;;;;;;;10.00;7.33;;;;;20.42;74.18;100381.63;5051726;28;45457;-84
2023/09/17 05:02:15;;;;;;;;;7.00;7.00;;;;;20.43;74.71;100391.44;5059263;28;45417;-84
2023/09/17 05:04:40;;;;;;;;;6.33;5.67;;;;;20.29;74.16;100371.19;5059322;27;45468;-85
2023/09/17 05:07:06;;;;;;;;;5.33;5.33;;;;;20.43;74.46;100385.19;5059549;28;45696;-84
2023/09/17 05:09:32;;;;;;;;;7.00;7.00;;;;;20.59;74.25;100407.81;5057720;28;47356;-85
2023/09/17 05:11:57;;;;;;;;;5.33;5.00;;;;;20.52;74.15;100405.88;5059385;28;45279;-87
2023/09/17 05:14:23;;;;;;;;;6.00;4.67;;;;;20.42;74.31;100383.47;5058849;28;45818;-88
2023/09/17 05:16:48;;;;;;;;;9.33;7.33;;;;;20.54;74.16;100420.06;5059906;28;45508;-87
2023/09/17 05:19:13;;;;;;;;;7.00;7.00;;;;;20.37;73.96;100375.81;5058895;28;58245;-84
2023/09/17 05:21:39;;;;;;;;;5.67;5.67;;;;;20.56;73.84;100416.19;5058365;28;45415;-85
2023/09/17 05:24:05;;;;;;;;;6.33;6.33;;;;;20.51;74.57;100409.59;5060245;28;45430;-86
2023/09/17 05:26:31;;;;;;;;;7.67;6.33;;;;;20.17;74.66;100374.25;5076889;28;45260;-84
2023/09/17 05:28:56;;;;;;;;;8.67;7.00;;;;;20.42;74.78;100424.00;5058778;28;45487;-88
2023/09/17 05:31:22;;;;;;;;;8.33;7.00;;;;;20.36;74.93;100419.19;5063540;28;45483;-86
2023/09/17 05:33:47;;;;;;;;;9.00;8.67;;;;;20.16;75.08;100394.16;5066762;28;45332;-84
2023/09/17 05:36:12;;;;;;;;;6.33;6.33;;;;;20.27;75.19;100413.69;5060696;28;45753;-87
2023/09/17 05:38:38;;;;;;;;;8.67;6.67;;;;;20.09;75.18;100385.84;5058614;28;45326;-84
2023/09/17 05:41:03;;;;;;;;;7.00;7.00;;;;;20.00;75.67;100382.19;5058130;28;45313;-83
2023/09/17 05:43:28;;;;;;;;;7.33;6.33;;;;;19.71;75.02;100330.25;5056089;28;65893;-85
2023/09/17 05:45:57;;;;;;;;;8.00;7.00;;;;;19.92;75.77;100370.44;5062294;28;45251;-81
2023/09/17 05:48:23;;;;;;;;;5.67;5.67;;;;;20.08;75.93;100394.94;5059179;28;45392;-90
2023/09/17 05:50:50;;;;;;;;;8.00;8.00;;;;;20.00;75.92;100384.03;5057761;28;45925;-87
2023/09/17 05:53:15;;;;;;;;;7.00;6.67;;;;;20.14;76.25;100406.97;5056903;28;45425;-86
2023/09/17 05:55:41;;;;;;;;;7.67;6.67;;;;;20.10;75.98;100411.81;5058383;28;45608;-88
2023/09/17 05:58:07;;;;;;;;;8.00;8.00;;;;;20.11;76.07;100408.13;5059584;28;45538;-89
2023/09/17 06:00:32;;;;;;;;;7.00;7.00;;;;;20.12;76.47;100415.22;5058705;28;45379;-88
2023/09/17 06:02:57;;;;;;;;;7.33;5.33;;;;;19.66;76.32;100325.31;5061135;28;45399;-88
2023/09/17 06:05:23;;;;;;;;;8.00;7.00;;;;;20.17;76.25;100409.34;5059921;28;51935;-89
2023/09/17 06:07:48;;;;;;;;;5.00;5.00;;;;;19.98;75.76;100370.69;5059060;28;45473;-84
2023/09/17 06:10:14;;;;;;;;;7.00;7.00;;;;;20.13;76.06;100399.88;5060218;28;65182;-88
2023/09/17 06:12:39;;;;;;;;;5.00;5.00;;;;;20.20;76.35;100401.81;5062656;28;44709;-84
2023/09/17 06:15:05;;;;;;;;;7.67;6.33;;;;;20.14;75.73;100388.91;5063165;28;44851;-86
2023/09/17 06:17:30;;;;;;;;;7.33;6.00;;;;;20.19;75.80;100394.72;5060313;28;45355;-88
2023/09/17 06:19:56;;;;;;;;;7.00;7.00;;;;;20.19;75.95;100383.06;5058545;28;67340;-85
2023/09/17 06:22:21;;;;;;;;;5.33;5.00;;;;;20.09;75.55;100368.78;5061068;28;45428;-85
2023/09/17 06:24:46;;;;;;;;;6.67;6.00;;;;;20.27;75.60;100407.44;5059353;28;45295;-84
2023/09/17 06:27:12;;;;;;;;;7.33;6.33;;;;;20.20;75.61;100385.63;5058661;28;45461;-87
2023/09/17 06:29:39;;;;;;;;;8.00;8.00;;;;;20.25;75.47;100398.66;5057108;28;45425;-84
2023/09/17 06:32:04;;;;;;;;;9.00;7.33;;;;;20.42;75.09;100416.75;5091995;27;45321;-84
2023/09/17 06:34:30;;;;;;;;;6.67;6.67;;;;;20.46;75.53;100420.84;5058185;28;45220;-88
2023/09/17 06:36:58;;;;;;;;;4.00;4.00;;;;;20.38;75.24;100395.56;5054453;28;45563;-86
2023/09/17 06:39:23;;;;;;;;;6.33;6.33;;;;;20.54;74.80;100420.06;5062671;27;45479;-81
2023/09/17 06:41:49;;;;;;;;;6.00;6.00;;;;;20.31;74.44;100373.72;5071889;28;61498;-83
2023/09/17 06:44:14;;;;;;;;;8.67;5.67;;;;;20.60;74.43;100414.91;5065773;28;45659;-87
2023/09/17 06:46:39;;;;;;;;;11.00;7.00;;;;;20.61;74.42;100416.59;5069609;28;45915;-79
2023/09/17 06:49:05;;;;;;;;;9.67;8.00;;;;;20.62;74.13;100430.97;5075799;28;45195;-80
2023/09/17 06:51:30;;;;;;;;;9.00;6.67;;;;;20.22;74.05;100350.34;5077959;28;45351;-79
2023/09/17 06:53:55;;;;;;;;;5.00;3.33;;;;;20.64;74.39;100414.59;5067058;28;45622;-80
2023/09/17 06:56:24;;;;;;;;;7.00;7.00;;;;;20.57;73.97;100403.53;5061670;28;67180;-80
2023/09/17 06:58:50;;;;;;;;;6.33;6.00;;;;;20.51;73.70;100402.31;5077112;27;45496;-81
2023/09/17 07:01:15;;;;;;;;;7.67;7.67;;;;;20.58;73.91;100416.94;5067636;28;45438;-83
2023/09/17 07:03:40;;;;;;;;;6.00;6.00;;;;;20.57;74.27;100417.06;5077046;28;54004;-83
2023/09/17 07:06:05;;;;;;;;;7.00;7.00;;;;;20.61;74.20;100422.00;5078214;27;45280;-81
2023/09/17 07:08:31;;;;;;;;;8.00;8.00;;;;;20.67;73.69;100435.91;5077326;27;45217;-81
2023/09/17 07:10:56;;;;;;;;;7.00;7.00;;;;;20.68;73.91;100430.34;5076617;28;45359;-81
2023/09/17 07:13:21;;;;;;;;;6.67;6.33;;;;;20.72;73.91;100428.19;5078081;27;53740;-80
2023/09/17 07:15:47;;;;;;;;;6.00;6.00;;;;;20.65;73.96;100416.28;5085438;28;45257;-80
2023/09/17 07:18:13;;;;;;;;;5.67;4.67;;;;;20.82;73.15;100426.22;5088207;28;45200;-79
2023/09/17 07:20:39;;;;;;;;;7.00;5.67;;;;;20.77;73.16;100409.66;5087565;27;45380;-82
2023/09/17 07:23:04;;;;;;;;;9.00;7.00;;;;;20.77;73.21;100415.06;5078665;28;45520;-84
2023/09/17 07:25:31;;;;;;;;;7.00;7.00;;;;;20.77;73.11;100409.66;5083840;28;48237;-79
2023/09/17 07:27:56;;;;;;;;;6.67;6.67;;;;;20.75;72.96;100398.16;5083337;28;45341;-85
2023/09/17 07:30:22;;;;;;;;;8.00;7.00;;;;;20.78;73.03;100395.13;5059881;27;45393;-81
2023/09/17 07:32:47;;;;;;;;;5.00;5.00;;;;;20.92;72.80;100408.06;5058674;28;64176;-79
2023/09/17 07:35:13;;;;;;;;;10.67;9.00;;;;;20.97;72.85;100400.34;5072669;28;46206;-78
2023/09/17 07:37:38;;;;;;;;;7.33;7.00;;;;;21.01;72.62;100401.72;5077590;28;45337;-83
2023/09/17 07:40:05;;;;;;;;;7.33;5.67;;;;;20.86;72.41;100382.53;5070344;28;45366;-80
2023/09/17 07:42:31;;;;;;;;;5.00;5.00;;;;;20.98;72.30;100407.47;5053481;28;45296;-81
2023/09/17 07:44:56;;;;;;;;;9.00;7.67;;;;;21.09;72.29;100425.25;5070329;28;45345;-80
2023/09/17 07:47:22;;;;;;;;;7.33;7.33;;;;;21.13;72.06;100424.81;5077754;28;45365;-80
2023/09/17 07:49:48;;;;;;;;;8.33;8.00;;;;;21.18;71.67;100414.34;5054170;28;45367;-82
2023/09/17 07:52:14;;;;;;;;;9.00;8.00;;;;;21.29;71.38;100415.13;5062552;28;45197;-81
2023/09/17 07:54:41;;;;;;;;;7.00;7.00;;;;;21.42;71.06;100416.41;5077422;27;53691;-81
2023/09/17 07:57:08;;;;;;;;;6.67;6.67;;;;;21.57;70.68;100422.06;5054442;28;45570;-81
2023/09/17 07:59:33;;;;;;;;;9.00;9.00;;;;;21.74;69.97;100421.13;5073889;28;45456;-78
2023/09/17 08:01:59;;;;;;;;;8.00;8.00;;;;;21.85;69.35;100422.69;5075319;27;45440;-84
2023/09/17 08:04:25;;;;;;;;;8.00;8.00;;;;;22.00;68.68;100421.06;5057434;28;46602;-80
2023/09/17 08:06:50;;;;;;;;;9.67;9.67;;;;;22.14;68.25;100422.34;5077657;28;45338;-81
2023/09/17 08:09:16;;;;;;;;;11.00;8.67;;;;;22.24;67.85;100420.31;5077944;28;45480;-81
2023/09/17 08:11:42;;;;;;;;;8.67;8.00;;;;;22.30;66.91;100410.72;5068196;28;45431;-81
2023/09/17 08:14:08;;;;;;;;;7.33;7.33;;;;;22.45;66.60;100429.88;5051036;28;46305;-83
2023/09/17 08:16:35;;;;;;;;;8.00;8.00;;;;;22.37;66.60;100434.25;5063412;28;45529;-82
2023/09/17 08:19:00;;;;;;;;;9.00;8.00;;;;;22.31;66.87;100434.91;5058056;28;45428;-84
2023/09/17 08:21:26;;;;;;;;;8.00;7.00;;;;;22.26;67.13;100442.69;5076296;28;45510;-82
2023/09/17 08:23:52;;;;;;;;;3.67;3.67;;;;;22.13;67.15;100420.63;5064376;28;46027;-80
2023/09/17 08:26:17;;;;;;;;;9.00;9.00;;;;;22.18;67.12;100441.81;5082709;28;45559;-83
2023/09/17 08:28:43;;;;;;;;;7.50;7.50;;;;;22.21;67.13;100439.63;5059567;28;45840;-81
2023/09/17 08:31:09;;;;;;;;;9.00;6.00;;;;;22.18;67.11;100417.44;5070716;28;45542;-86
2023/09/17 08:33:35;;;;;;;;;5.00;5.00;;;;;22.15;67.14;100413.22;5076388;28;45938;-80
2023/09/17 08:36:01;;;;;;;;;5.67;5.67;;;;;22.19;66.96;100419.97;5085116;27;45382;-83
2023/09/17 08:38:26;;;;;;;;;6.67;5.00;;;;;22.33;66.75;100421.19;5070761;28;45273;-84
2023/09/17 08:40:52;;;;;;;;;6.75;5.50;;;;;22.31;66.83;100413.25;5070647;28;45464;-80
2023/09/17 08:43:18;;;;;;;;;4.50;4.50;;;;;22.51;66.77;100435.44;5079329;28;46232;-79
2023/09/17 08:45:44;;;;;;;;;7.00;7.00;;;;;22.64;66.25;100435.81;5084488;27;45415;-81
2023/09/17 08:48:09;;;;;;;;;5.33;5.33;;;;;22.74;65.77;100430.25;5081803;28;45454;-83
2023/09/17 08:50:35;;;;;;;;;7.00;7.00;;;;;22.81;65.78;100431.28;5067062;28;45436;-81
2023/09/17 08:53:05;;;;;;;;;5.25;5.25;;;;;22.77;65.03;100423.63;5060280;28;45443;-85
2023/09/17 08:55:33;;;;;;;;;7.00;6.50;;;;;22.93;65.11;100435.38;5078013;28;45556;-82
2023/09/17 08:58:17;;;;;;;;;6.75;6.75;;;;;22.93;64.66;100429.94;5062779;28;45473;-83
2023/09/17 09:00:50;;;;;;;;;6.50;6.50;;;;;22.88;65.11;100421.47;5063506;28;45703;-82
2023/09/17 09:03:17;;;;;;;;;5.00;5.00;;;;;22.97;64.85;100437.75;5063274;28;45914;-82
2023/09/17 09:05:44;;;;;;;;;5.33;5.33;;;;;23.01;65.05;100430.94;5080563;28;45347;-81
2023/09/17 09:08:12;;;;;;;;;5.00;5.00;;;;;23.15;64.31;100443.81;5056885;28;45326;-83
2023/09/17 09:10:38;;;;;;;;;7.00;5.50;;;;;23.23;64.22;100441.97;5063219;28;45527;-83
2023/09/17 09:13:04;;;;;;;;;5.50;5.50;;;;;23.28;63.72;100425.16;5055160;28;46185;-84
2023/09/17 09:15:32;;;;;;;;;6.50;6.50;;;;;23.33;63.51;100403.78;5080151;28;45990;-80
2023/09/17 09:17:59;;;;;;;;;8.00;8.00;;;;;23.52;62.67;100407.97;5054090;28;45272;-83
2023/09/17 09:20:24;;;;;;;;;8.25;7.75;;;;;23.81;62.17;100401.97;5072676;27;45254;-82
2023/09/17 09:22:49;;;;;;;;;8.00;6.00;;;;;23.87;61.32;100367.84;5058284;28;45327;-83
2023/09/17 09:25:16;;;;;;;;;7.00;6.75;;;;;24.25;60.61;100413.13;5056641;28;45497;-83
2023/09/17 09:27:42;;;;;;;;;8.00;8.00;;;;;24.13;60.44;100390.94;5059226;28;45464;-83
2023/09/17 09:30:09;;;;;;;;;11.25;7.25;;;;;24.43;60.16;100418.31;5058704;28;45840;-83
2023/09/17 09:32:36;;;;;;;;;6.00;6.00;;;;;24.21;59.79;100381.03;5058739;28;46399;-84
2023/09/17 09:35:02;;;;;;;;;8.00;6.75;;;;;24.53;60.03;100418.94;5061486;28;45160;-80
2023/09/17 09:37:28;;;;;;;;;8.25;8.25;;;;;24.59;60.24;100417.34;5061722;27;45342;-85
2023/09/17 09:39:54;;;;;;;;;7.00;7.00;;;;;24.56;59.75;100407.69;5060177;28;45520;-86
2023/09/17 09:42:21;;;;;;;;;5.00;5.00;;;;;24.62;59.69;100400.69;5059510;28;45211;-84
2023/09/17 09:44:46;;;;;;;;;8.00;8.00;;;;;24.80;59.13;100412.09;5058030;28;45354;-84
2023/09/17 09:47:13;;;;;;;;;6.00;6.00;;;;;24.84;59.01;100391.66;5057490;28;45302;-85
2023/09/17 09:49:43;;;;;;;;;6.25;6.25;;;;;25.06;58.57;100398.13;5058168;28;45592;-84
2023/09/17 09:52:10;;;;;;;;;8.50;7.75;;;;;25.19;57.76;100389.31;5060413;28;45296;-84
2023/09/17 09:54:35;;;;;;;;;7.50;7.50;;;;;25.41;57.62;100401.19;5059660;28;45254;-84
2023/09/17 09:57:05;;;;;;;;;6.50;6.50;;;;;25.42;56.76;100381.09;5060450;28;45231;-83
2023/09/17 09:59:31;;;;;;;;;9.75;8.25;;;;;25.48;56.89;100370.28;5058202;28;45472;-83
2023/09/17 10:01:57;;;;;;;;;11.25;9.75;;;;;25.88;56.46;100385.31;5056925;28;46101;-84
2023/09/17 10:04:23;;;;;;;;;8.00;8.00;;;;;26.06;55.69;100381.34;5058755;27;45366;-86
2023/09/17 10:06:48;;;;;;;;;7.75;7.75;;;;;26.01;54.60;100364.72;5060160;27;45211;-84
2023/09/17 10:09:15;;;;;;;;;7.50;7.50;;;;;26.14;55.49;100367.59;5064624;27;45159;-85
2023/09/17 10:11:41;;;;;;;;;9.00;7.75;;;;;26.05;55.04;100336.06;5065457;28;46301;-84
2023/09/17 10:14:07;;;;;;;;;9.00;8.00;;;;;26.29;54.77;100356.63;5060585;28;45476;-85
2023/09/17 10:16:34;;;;;;;;;8.00;8.00;;;;;26.37;54.71;100365.56;5061879;27;45346;-83
2023/09/17 10:19:04;;;;;;;;;10.75;10.75;;;;;26.44;53.74;100355.59;5063005;28;45570;-88
2023/09/17 10:21:29;;;;;;;;;11.00;9.00;;;;;26.46;53.73;100363.56;5061475;28;45721;-87
2023/09/17 10:23:56;;;;;;;;;8.50;8.50;;;;;26.47;53.71;100353.50;5061932;28;45312;-85
2023/09/17 10:26:25;;;;;;;;;9.50;8.00;;;;;26.44;53.71;100350.13;5059033;28;45430;-83
2023/09/17 10:28:50;;;;;;;;;7.25;7.25;;;;;26.52;53.46;100343.69;5059323;28;45484;-87
2023/09/17 10:31:16;;;;;;;;;8.75;8.00;;;;;26.50;53.41;100337.59;5060124;28;46499;-87
2023/09/17 10:33:47;;;;;;;;;10.25;8.50;;;;;26.63;53.83;100342.31;5059445;28;45361;-85
2023/09/17 10:36:13;;;;;;;;;12.75;8.75;;;;;26.53;53.53;100314.53;5057757;28;45247;-88
2023/09/17 10:38:39;;;;;;;;;13.00;10.75;;;;;26.67;53.07;100327.22;5055771;28;45331;-84
2023/09/17 10:41:05;;;;;;;;;7.00;4.75;;;;;26.62;53.21;100329.72;5056806;28;45432;-84
2023/09/17 10:43:35;;;;;;;;;13.25;9.25;;;;;26.62;53.63;100329.72;5075552;28;45402;-84
2023/09/17 10:46:01;;;;;;;;;9.25;8.75;;;;;26.64;53.88;100338.53;5056104;28;45319;-84
2023/09/17 10:48:28;;;;;;;;;18.50;13.50;;;;;26.64;53.44;100333.09;5060049;28;45449;-86
2023/09/17 10:50:54;;;;;;;;;8.80;8.80;;;;;26.62;53.33;100330.56;5062431;28;46561;-85
2023/09/17 10:53:20;;;;;;;;;9.60;8.60;;;;;26.33;53.59;100287.91;5060740;28;45272;-87
2023/09/17 10:55:53;;;;;;;;;8.75;8.00;;;;;26.61;53.54;100322.59;5062584;28;45449;-83
2023/09/17 10:58:35;;;;;;;;;11.00;8.75;;;;;26.55;53.67;100313.28;5043577;28;45421;-85
2023/09/17 11:01:02;;;;;;;;;10.50;9.75;;;;;26.42;53.36;100297.66;5058259;27;45427;-84
2023/09/17 11:03:31;;;;;;;;;12.60;8.80;;;;;26.53;53.34;100311.81;5057632;28;45357;-83
2023/09/17 11:06:00;;;;;;;;;15.00;12.00;;;;;26.52;53.57;100319.13;5058516;28;45438;-85
2023/09/17 11:08:26;;;;;;;;;9.25;8.00;;;;;26.51;54.09;100325.63;5061822;28;45523;-81
2023/09/17 11:10:51;;;;;;;;;7.00;7.00;;;;;26.44;54.08;100322.88;5062217;28;45468;-84
2023/09/17 11:13:19;;;;;;;;;7.75;7.75;;;;;26.37;53.86;100316.50;5059272;28;45438;-83
2023/09/17 11:15:44;;;;;;;;;9.75;9.50;;;;;26.21;53.97;100275.84;5060501;28;45444;-87
2023/09/17 11:18:11;;;;;;;;;8.00;8.00;;;;;26.52;53.61;100323.75;5060172;28;45486;-88